createdAt,value
2022-08-21T00:00:25.888Z,35.40
2022-08-21T00:01:44.632Z,35.33
2022-08-21T00:02:59.003Z,35.13
2022-08-21T00:04:10.502Z,35.09
2022-08-21T00:05:18.224Z,35.02
2022-08-21T00:06:26.534Z,35.03
2022-08-21T00:07:35.460Z,34.87
2022-08-21T00:08:43.177Z,34.92
2022-08-21T00:09:50.906Z,34.84
2022-08-21T00:10:58.533Z,34.78
2022-08-21T00:12:07.970Z,34.70
2022-08-21T00:13:19.031Z,34.66
2022-08-21T00:14:27.503Z,34.51
2022-08-21T00:15:41.272Z,34.36
2022-08-21T00:16:50.776Z,34.47
2022-08-21T00:17:59.333Z,34.47
2022-08-21T00:19:09.093Z,34.28
2022-08-21T00:20:17.250Z,34.19
2022-08-21T00:21:25.196Z,34.13
2022-08-21T00:22:33.896Z,34.06
2022-08-21T00:23:41.879Z,33.97
2022-08-21T00:24:49.891Z,33.97
2022-08-21T00:25:58.047Z,34.30
2022-08-21T00:27:06.885Z,34.17
2022-08-21T00:28:14.643Z,34.02
2022-08-21T00:29:22.016Z,33.97
2022-08-21T00:30:30.022Z,34.00
2022-08-21T00:31:37.396Z,34.02
2022-08-21T00:32:45.415Z,33.93
2022-08-21T00:34:00.666Z,33.87
2022-08-21T00:35:11.983Z,33.69
2022-08-21T00:36:19.495Z,33.48
2022-08-21T00:37:27.992Z,33.37
2022-08-21T00:38:38.373Z,33.46
2022-08-21T00:39:46.091Z,33.25
2022-08-21T00:40:56.294Z,33.09
2022-08-21T00:42:04.765Z,32.83
2022-08-21T00:43:13.885Z,32.69
2022-08-21T00:44:22.304Z,32.59
2022-08-21T00:45:32.605Z,32.64
2022-08-21T00:46:41.583Z,32.59
2022-08-21T00:47:49.014Z,32.52
2022-08-21T00:48:57.240Z,32.37
2022-08-21T00:50:08.844Z,32.37
2022-08-21T00:51:28.256Z,32.45
2022-08-21T00:52:37.095Z,32.38
2022-08-21T00:53:49.341Z,32.39
2022-08-21T00:55:01.742Z,32.25
2022-08-21T00:56:12.594Z,32.27
2022-08-21T00:57:25.222Z,32.13
2022-08-21T00:58:33.894Z,32.09
2022-08-21T00:59:42.629Z,32.06
2022-08-21T01:00:52.200Z,32.01
2022-08-21T01:02:00.613Z,32.00
2022-08-21T01:03:18.088Z,31.96
2022-08-21T01:04:26.197Z,31.93
2022-08-21T01:05:35.580Z,31.85
2022-08-21T01:06:44.118Z,31.82
2022-08-21T01:07:52.554Z,31.91
2022-08-21T01:09:00.777Z,31.91
2022-08-21T01:10:20.599Z,31.79
2022-08-21T01:11:32.786Z,31.67
2022-08-21T01:12:40.536Z,31.75
2022-08-21T01:13:49.161Z,31.72
2022-08-21T01:14:57.256Z,31.71
2022-08-21T01:16:06.695Z,31.62
2022-08-21T01:17:16.045Z,31.49
2022-08-21T01:18:23.903Z,31.38
2022-08-21T01:19:32.093Z,31.40
2022-08-21T01:20:40.316Z,31.34
2022-08-21T01:21:48.732Z,31.24
2022-08-21T01:22:57.415Z,31.19
2022-08-21T01:24:06.073Z,31.20
2022-08-21T01:25:16.295Z,31.22
2022-08-21T01:26:33.953Z,31.19
2022-08-21T01:27:43.131Z,31.21
2022-08-21T01:29:14.535Z,31.19
2022-08-21T01:30:26.125Z,31.02
2022-08-21T01:31:35.205Z,30.90
2022-08-21T01:32:43.108Z,30.94
2022-08-21T01:33:51.205Z,30.96
2022-08-21T01:34:59.864Z,30.86
2022-08-21T01:36:08.849Z,30.71
2022-08-21T01:37:17.990Z,30.62
2022-08-21T01:38:27.478Z,30.49
2022-08-21T01:39:38.423Z,30.44
2022-08-21T01:40:46.694Z,30.23
2022-08-21T01:41:54.717Z,30.03
2022-08-21T01:43:04.376Z,30.00
2022-08-21T01:44:12.743Z,29.94
2022-08-21T01:45:22.397Z,29.73
2022-08-21T01:46:32.514Z,29.67
2022-08-21T01:47:40.823Z,29.58
2022-08-21T01:48:48.936Z,29.43
2022-08-21T01:49:56.762Z,29.36
2022-08-21T01:51:04.953Z,29.31
2022-08-21T01:52:13.525Z,29.23
2022-08-21T01:53:21.279Z,29.23
2022-08-21T01:54:37.088Z,29.12
2022-08-21T01:55:45.951Z,29.01
2022-08-21T01:56:54.694Z,28.89
2022-08-21T01:58:03.006Z,28.97
2022-08-21T01:59:12.108Z,28.85
2022-08-21T02:00:22.021Z,28.68
2022-08-21T02:01:29.774Z,28.44
2022-08-21T02:02:38.352Z,28.35
2022-08-21T02:03:45.916Z,28.25
2022-08-21T02:04:53.727Z,28.18
2022-08-21T02:06:04.441Z,28.10
2022-08-21T02:07:12.472Z,28.02
2022-08-21T02:08:20.663Z,27.89
2022-08-21T02:09:28.913Z,27.82
2022-08-21T02:10:37.799Z,27.77
2022-08-21T02:11:45.731Z,27.67
2022-08-21T02:12:53.738Z,27.53
2022-08-21T02:14:01.904Z,27.35
2022-08-21T02:15:12.543Z,27.14
2022-08-21T02:16:21.294Z,26.96
2022-08-21T02:17:28.905Z,26.81
2022-08-21T02:18:37.705Z,26.69
2022-08-21T02:19:45.302Z,26.53
2022-08-21T02:20:55.694Z,26.38
2022-08-21T02:22:04.265Z,26.23
2022-08-21T02:23:12.132Z,26.10
2022-08-21T02:24:19.422Z,25.97
2022-08-21T02:25:27.326Z,25.85
2022-08-21T02:26:34.429Z,25.75
2022-08-21T02:27:43.325Z,25.64
2022-08-21T02:28:51.328Z,25.54
2022-08-21T02:30:00.085Z,25.45
2022-08-21T02:31:09.194Z,25.37
2022-08-21T02:32:17.706Z,25.29
2022-08-21T02:33:25.819Z,25.23
2022-08-21T02:34:33.924Z,25.18
2022-08-21T02:35:44.333Z,25.12
2022-08-21T02:36:58.747Z,25.07
2022-08-21T02:38:13.346Z,25.00
2022-08-21T02:39:26.970Z,24.94
2022-08-21T02:40:39.009Z,24.88
2022-08-21T02:41:51.791Z,24.82
2022-08-21T02:43:00.175Z,24.78
2022-08-21T02:44:08.866Z,24.71
2022-08-21T02:45:17.737Z,24.67
2022-08-21T02:46:26.007Z,24.60
2022-08-21T02:47:33.625Z,24.54
2022-08-21T02:48:41.854Z,24.50
2022-08-21T02:49:51.186Z,24.45
2022-08-21T02:51:01.439Z,24.40
2022-08-21T02:52:10.247Z,24.36
2022-08-21T02:53:19.698Z,24.30
2022-08-21T02:54:27.723Z,24.26
2022-08-21T02:55:35.539Z,24.22
2022-08-21T02:56:44.095Z,24.18
2022-08-21T02:57:52.496Z,24.14
2022-08-21T02:59:00.364Z,24.10
2022-08-21T03:00:09.698Z,24.08
2022-08-21T03:01:16.996Z,24.04
2022-08-21T03:02:26.670Z,24.00
2022-08-21T03:03:35.807Z,23.98
2022-08-21T03:04:46.754Z,23.94
2022-08-21T03:05:55.495Z,23.91
2022-08-21T03:07:03.016Z,23.91
2022-08-21T03:08:15.377Z,23.87
2022-08-21T03:09:22.929Z,23.86
2022-08-21T03:10:31.425Z,23.83
2022-08-21T03:11:39.457Z,23.81
2022-08-21T03:12:56.852Z,23.78
2022-08-21T03:14:09.881Z,23.75
2022-08-21T03:15:19.861Z,23.74
2022-08-21T03:16:30.018Z,23.72
2022-08-21T03:17:39.847Z,23.70
2022-08-21T03:18:47.739Z,23.67
2022-08-21T03:19:56.345Z,23.65
2022-08-21T03:21:04.702Z,23.61
2022-08-21T03:22:14.579Z,23.57
2022-08-21T03:23:23.333Z,23.54
2022-08-21T03:24:31.050Z,23.51
2022-08-21T03:25:41.017Z,23.47
2022-08-21T03:26:49.629Z,23.44
2022-08-21T03:27:59.205Z,23.40
2022-08-21T03:29:10.141Z,23.38
2022-08-21T03:30:17.914Z,23.33
2022-08-21T03:31:26.075Z,23.28
2022-08-21T03:32:34.286Z,23.25
2022-08-21T03:33:42.134Z,23.24
2022-08-21T03:34:50.286Z,23.22
2022-08-21T03:36:03.184Z,23.19
2022-08-21T03:37:12.532Z,23.14
2022-08-21T03:38:26.352Z,23.09
2022-08-21T03:39:35.003Z,23.06
2022-08-21T03:40:43.484Z,23.05
2022-08-21T03:41:51.461Z,23.00
2022-08-21T03:42:59.569Z,22.98
2022-08-21T03:44:07.591Z,22.97
2022-08-21T03:45:15.530Z,22.93
2022-08-21T03:46:22.677Z,22.90
2022-08-21T03:47:29.780Z,22.89
2022-08-21T03:48:38.883Z,22.87
2022-08-21T03:49:46.773Z,22.84
2022-08-21T03:50:56.187Z,22.81
2022-08-21T03:52:05.264Z,22.79
2022-08-21T03:53:17.045Z,22.77
2022-08-21T03:54:26.462Z,22.74
2022-08-21T03:55:37.342Z,22.73
2022-08-21T03:56:45.305Z,22.71
2022-08-21T03:57:54.315Z,22.69
2022-08-21T03:59:02.232Z,22.67
2022-08-21T04:00:14.354Z,22.63
2022-08-21T04:01:22.399Z,22.57
2022-08-21T04:02:30.592Z,22.56
2022-08-21T04:03:39.063Z,22.52
2022-08-21T04:04:47.553Z,22.49
2022-08-21T04:05:55.679Z,22.49
2022-08-21T04:07:03.223Z,22.48
2022-08-21T04:08:12.294Z,22.48
2022-08-21T04:09:21.023Z,22.46
2022-08-21T04:10:30.584Z,22.46
2022-08-21T04:11:39.539Z,22.44
2022-08-21T04:12:47.575Z,22.42
2022-08-21T04:13:55.786Z,22.39
2022-08-21T04:15:04.505Z,22.38
2022-08-21T04:16:12.992Z,22.35
2022-08-21T04:17:21.801Z,22.34
2022-08-21T04:18:29.506Z,22.31
2022-08-21T04:19:37.411Z,22.29
2022-08-21T04:20:49.887Z,22.26
2022-08-21T04:21:58.382Z,22.25
2022-08-21T04:23:07.079Z,22.27
2022-08-21T04:24:15.089Z,22.28
2022-08-21T04:25:24.117Z,22.25
2022-08-21T04:26:33.441Z,22.24
2022-08-21T04:27:42.523Z,22.22
2022-08-21T04:28:51.066Z,22.21
2022-08-21T04:29:59.080Z,22.21
2022-08-21T04:31:09.306Z,22.19
2022-08-21T04:32:24.115Z,22.16
2022-08-21T04:33:32.396Z,22.16
2022-08-21T04:34:40.511Z,22.16
2022-08-21T04:35:48.941Z,22.15
2022-08-21T04:36:57.145Z,22.14
2022-08-21T04:38:05.959Z,22.14
2022-08-21T04:39:15.706Z,22.16
2022-08-21T04:40:28.402Z,22.14
2022-08-21T04:41:36.024Z,22.12
2022-08-21T04:42:55.581Z,22.10
2022-08-21T04:44:03.993Z,22.11
2022-08-21T04:45:12.541Z,22.10
2022-08-21T04:46:21.455Z,22.10
2022-08-21T04:47:52.885Z,22.10
2022-08-21T04:48:57.437Z,22.05
2022-08-21T04:50:06.273Z,22.02
2022-08-21T04:51:37.640Z,22.02
2022-08-21T04:52:45.317Z,21.99
2022-08-21T04:54:02.423Z,21.97
2022-08-21T04:55:11.466Z,21.96
2022-08-21T04:56:28.935Z,21.93
2022-08-21T04:57:48.282Z,21.91
2022-08-21T04:58:59.052Z,21.88
2022-08-21T05:00:12.350Z,21.87
2022-08-21T05:01:24.158Z,21.84
2022-08-21T05:02:31.911Z,21.82
2022-08-21T05:03:41.422Z,21.81
2022-08-21T05:04:55.553Z,21.79
2022-08-21T05:06:08.514Z,21.78
2022-08-21T05:07:42.334Z,21.75
2022-08-21T05:08:49.466Z,21.71
2022-08-21T05:09:57.759Z,21.71
2022-08-21T05:11:06.692Z,21.69
2022-08-21T05:12:14.743Z,21.72
2022-08-21T05:13:22.513Z,21.69
2022-08-21T05:14:30.273Z,21.66
2022-08-21T05:15:37.915Z,21.63
2022-08-21T05:16:46.463Z,21.60
2022-08-21T05:18:00.962Z,21.59
2022-08-21T05:19:10.614Z,21.56
2022-08-21T05:20:23.962Z,21.55
2022-08-21T05:21:32.282Z,21.53
2022-08-21T05:22:42.726Z,21.53
2022-08-21T05:23:50.906Z,21.52
2022-08-21T05:24:59.944Z,21.49
2022-08-21T05:26:08.808Z,21.47
2022-08-21T05:27:26.213Z,21.47
2022-08-21T05:28:35.654Z,21.46
2022-08-21T05:29:43.334Z,21.43
2022-08-21T05:30:51.943Z,21.41
2022-08-21T05:32:00.050Z,21.39
2022-08-21T05:33:08.997Z,21.40
2022-08-21T05:34:17.220Z,21.40
2022-08-21T05:35:24.733Z,21.37
2022-08-21T05:36:33.464Z,21.35
2022-08-21T05:37:41.161Z,21.35
2022-08-21T05:38:49.703Z,21.32
2022-08-21T05:40:20.140Z,21.32
2022-08-21T05:41:26.485Z,21.31
2022-08-21T05:42:34.745Z,21.29
2022-08-21T05:43:42.766Z,21.29
2022-08-21T05:44:51.250Z,21.26
2022-08-21T05:46:00.185Z,21.24
2022-08-21T05:47:13.116Z,21.23
2022-08-21T05:48:24.513Z,21.22
2022-08-21T05:49:32.264Z,21.19
2022-08-21T05:50:40.802Z,21.15
2022-08-21T05:51:51.680Z,21.15
2022-08-21T05:53:07.156Z,21.13
2022-08-21T05:54:16.325Z,21.13
2022-08-21T05:55:25.221Z,21.10
2022-08-21T05:56:33.711Z,21.07
2022-08-21T05:57:43.521Z,21.05
2022-08-21T05:58:51.377Z,21.03
2022-08-21T05:59:58.898Z,21.01
2022-08-21T06:01:07.457Z,21.00
2022-08-21T06:02:15.932Z,20.99
2022-08-21T06:03:28.974Z,20.98
2022-08-21T06:04:40.841Z,20.96
2022-08-21T06:05:50.353Z,20.94
2022-08-21T06:06:59.025Z,20.92
2022-08-21T06:08:07.853Z,20.91
2022-08-21T06:09:16.318Z,20.90
2022-08-21T06:10:24.270Z,20.89
2022-08-21T06:11:32.519Z,20.87
2022-08-21T06:12:41.447Z,20.86
2022-08-21T06:13:51.025Z,20.84
2022-08-21T06:14:59.315Z,20.83
2022-08-21T06:16:15.754Z,20.83
2022-08-21T06:17:25.260Z,20.81
2022-08-21T06:18:33.144Z,20.80
2022-08-21T06:19:41.023Z,20.78
2022-08-21T06:20:49.154Z,20.77
2022-08-21T06:21:56.928Z,20.74
2022-08-21T06:23:05.777Z,20.72
2022-08-21T06:24:14.906Z,20.70
2022-08-21T06:25:22.642Z,20.68
2022-08-21T06:26:31.693Z,20.65
2022-08-21T06:27:39.962Z,20.64
2022-08-21T06:28:47.552Z,20.60
2022-08-21T06:29:55.443Z,20.59
2022-08-21T06:31:03.092Z,20.57
2022-08-21T06:32:14.881Z,20.56
2022-08-21T06:33:24.176Z,20.54
2022-08-21T06:34:32.001Z,20.52
2022-08-21T06:35:41.532Z,20.52
2022-08-21T06:36:50.468Z,20.49
2022-08-21T06:37:59.380Z,20.48
2022-08-21T06:39:12.301Z,20.46
2022-08-21T06:40:34.213Z,20.44
2022-08-21T06:41:43.361Z,20.43
2022-08-21T06:42:51.821Z,20.42
2022-08-21T06:43:59.112Z,20.41
2022-08-21T06:45:07.201Z,20.40
2022-08-21T06:46:14.481Z,20.39
2022-08-21T06:47:22.507Z,20.39
2022-08-21T06:48:32.431Z,20.37
2022-08-21T06:49:41.336Z,20.37
2022-08-21T06:50:50.028Z,20.37
2022-08-21T06:51:57.642Z,20.35
2022-08-21T06:53:09.637Z,20.34
2022-08-21T06:54:16.787Z,20.30
2022-08-21T06:55:27.418Z,20.29
2022-08-21T06:56:37.565Z,20.28
2022-08-21T06:57:47.982Z,20.29
2022-08-21T06:59:00.398Z,20.31
2022-08-21T07:00:09.198Z,20.28
2022-08-21T07:01:16.367Z,20.25
2022-08-21T07:02:23.786Z,20.22
2022-08-21T07:03:32.587Z,20.21
2022-08-21T07:04:40.955Z,20.20
2022-08-21T07:05:48.861Z,20.18
2022-08-21T07:06:56.936Z,20.17
2022-08-21T07:08:05.428Z,20.20
2022-08-21T07:09:13.917Z,20.20
2022-08-21T07:10:22.861Z,20.19
2022-08-21T07:11:30.394Z,20.17
2022-08-21T07:12:37.485Z,20.16
2022-08-21T07:13:44.644Z,20.13
2022-08-21T07:14:51.955Z,20.12
2022-08-21T07:16:03.665Z,20.10
2022-08-21T07:17:14.376Z,20.06
2022-08-21T07:18:22.976Z,20.03
2022-08-21T07:19:30.199Z,19.98
2022-08-21T07:20:37.322Z,19.95
2022-08-21T07:21:44.510Z,19.96
2022-08-21T07:22:52.767Z,19.94
2022-08-21T07:24:00.626Z,19.93
2022-08-21T07:25:10.391Z,19.92
2022-08-21T07:26:19.230Z,19.91
2022-08-21T07:27:26.520Z,19.89
2022-08-21T07:28:34.171Z,19.87
2022-08-21T07:29:42.253Z,19.86
2022-08-21T07:30:49.732Z,19.84
2022-08-21T07:31:56.868Z,19.83
2022-08-21T07:33:05.096Z,19.83
2022-08-21T07:34:13.909Z,19.82
2022-08-21T07:35:22.247Z,19.84
2022-08-21T07:36:29.878Z,19.83
2022-08-21T07:37:42.016Z,19.79
2022-08-21T07:38:52.722Z,19.76
2022-08-21T07:40:01.466Z,19.77
2022-08-21T07:41:30.385Z,19.76
2022-08-21T07:42:37.493Z,19.74
2022-08-21T07:43:45.844Z,19.73
2022-08-21T07:44:56.491Z,19.72
2022-08-21T07:46:04.264Z,19.71
2022-08-21T07:47:11.990Z,19.70
2022-08-21T07:48:19.892Z,19.70
2022-08-21T07:49:27.122Z,19.69
2022-08-21T07:50:35.378Z,19.68
2022-08-21T07:51:42.897Z,19.66
2022-08-21T07:52:50.721Z,19.67
2022-08-21T07:53:59.305Z,19.65
2022-08-21T07:55:08.235Z,19.63
2022-08-21T07:56:16.480Z,19.63
2022-08-21T07:57:24.338Z,19.63
2022-08-21T07:58:32.013Z,19.63
2022-08-21T07:59:40.843Z,19.64
2022-08-21T08:00:47.702Z,19.64
2022-08-21T08:01:54.773Z,19.65
2022-08-21T08:03:01.955Z,19.65
2022-08-21T08:04:09.293Z,19.65
2022-08-21T08:05:16.258Z,19.66
2022-08-21T08:06:23.374Z,19.65
2022-08-21T08:07:30.242Z,19.65
2022-08-21T08:08:37.423Z,19.64
2022-08-21T08:09:44.703Z,19.66
2022-08-21T08:10:52.769Z,19.65
2022-08-21T08:12:00.311Z,19.63
2022-08-21T08:13:10.522Z,19.63
2022-08-21T08:14:18.115Z,19.62
2022-08-21T08:15:26.501Z,19.62
2022-08-21T08:16:34.394Z,19.60
2022-08-21T08:17:43.087Z,19.59
2022-08-21T08:18:51.073Z,19.59
2022-08-21T08:19:59.436Z,19.58
2022-08-21T08:21:08.326Z,19.57
2022-08-21T08:22:23.801Z,19.56
2022-08-21T08:23:32.824Z,19.55
2022-08-21T08:24:42.425Z,19.56
2022-08-21T08:25:50.286Z,19.54
2022-08-21T08:27:00.036Z,19.54
2022-08-21T08:28:16.560Z,19.52
2022-08-21T08:29:25.701Z,19.52
2022-08-21T08:30:33.784Z,19.52
2022-08-21T08:31:41.728Z,19.50
2022-08-21T08:32:50.744Z,19.48
2022-08-21T08:33:58.648Z,19.46
2022-08-21T08:35:07.348Z,19.45
2022-08-21T08:36:20.048Z,19.44
2022-08-21T08:37:29.480Z,19.42
2022-08-21T08:38:43.642Z,19.41
2022-08-21T08:39:53.533Z,19.40
2022-08-21T08:41:15.055Z,19.41
2022-08-21T08:42:35.714Z,19.40
2022-08-21T08:43:45.276Z,19.38
2022-08-21T08:45:06.818Z,19.38
2022-08-21T08:46:19.475Z,19.36
2022-08-21T08:47:26.918Z,19.34
2022-08-21T08:48:40.179Z,19.34
2022-08-21T08:50:05.637Z,19.33
2022-08-21T08:51:21.134Z,19.33
2022-08-21T08:52:34.662Z,19.33
2022-08-21T08:53:53.014Z,19.32
2022-08-21T08:55:26.627Z,19.33
2022-08-21T08:56:36.322Z,19.33
2022-08-21T08:57:49.889Z,19.34
2022-08-21T08:58:58.694Z,19.35
2022-08-21T09:00:13.304Z,19.35
2022-08-21T09:01:26.171Z,19.34
2022-08-21T09:02:36.921Z,19.31
2022-08-21T09:03:44.550Z,19.29
2022-08-21T09:04:52.966Z,19.28
2022-08-21T09:06:10.424Z,19.28
2022-08-21T09:07:24.707Z,19.29
2022-08-21T09:08:35.374Z,19.29
2022-08-21T09:10:00.097Z,19.29
2022-08-21T09:11:14.085Z,19.29
2022-08-21T09:12:53.944Z,19.29
2022-08-21T09:14:22.154Z,19.28
2022-08-21T09:15:40.374Z,19.27
2022-08-21T09:16:52.645Z,19.26
2022-08-21T09:18:14.106Z,19.26
2022-08-21T09:19:25.018Z,19.24
2022-08-21T09:20:56.306Z,19.23
2022-08-21T09:22:12.403Z,19.21
2022-08-21T09:23:47.850Z,19.20
2022-08-21T09:25:04.084Z,19.19
2022-08-21T09:26:17.695Z,19.17
2022-08-21T09:27:25.841Z,19.16
2022-08-21T09:28:40.312Z,19.16
2022-08-21T09:29:53.149Z,19.16
2022-08-21T09:31:05.116Z,19.14
2022-08-21T09:32:36.836Z,19.14
2022-08-21T09:33:47.083Z,19.13
2022-08-21T09:35:01.599Z,19.11
2022-08-21T09:36:11.437Z,19.08
2022-08-21T09:37:20.572Z,19.06
2022-08-21T09:38:36.405Z,19.07
2022-08-21T09:39:48.666Z,19.10
2022-08-21T09:41:02.688Z,19.12
2022-08-21T09:42:13.049Z,19.11
2022-08-21T09:43:23.695Z,19.10
2022-08-21T09:44:33.057Z,19.08
2022-08-21T09:45:41.496Z,19.08
2022-08-21T09:46:55.274Z,19.08
2022-08-21T09:48:32.537Z,19.06
2022-08-21T09:49:45.192Z,19.05
2022-08-21T09:50:53.348Z,19.04
2022-08-21T09:52:01.262Z,19.04
2022-08-21T09:53:16.698Z,19.02
2022-08-21T09:54:26.808Z,19.03
2022-08-21T09:56:13.954Z,19.01
2022-08-21T09:57:46.532Z,18.98
2022-08-21T09:58:58.865Z,18.98
2022-08-21T10:00:23.848Z,18.98
2022-08-21T10:01:31.136Z,18.97
2022-08-21T10:02:39.277Z,18.98
2022-08-21T10:03:47.846Z,18.97
2022-08-21T10:05:01.035Z,18.96
2022-08-21T10:06:13.144Z,18.94
2022-08-21T10:07:23.411Z,18.93
2022-08-21T10:08:31.231Z,18.93
2022-08-21T10:09:38.094Z,18.93
2022-08-21T10:10:45.621Z,18.91
2022-08-21T10:11:59.170Z,18.93
2022-08-21T10:13:25.640Z,18.92
2022-08-21T10:14:53.119Z,18.90
2022-08-21T10:16:26.100Z,18.90
2022-08-21T10:17:56.942Z,18.88
2022-08-21T10:19:37.890Z,18.88
2022-08-21T10:21:06.531Z,18.88
2022-08-21T10:22:42.231Z,18.87
2022-08-21T10:23:49.189Z,18.85
2022-08-21T10:25:08.639Z,18.84
2022-08-21T10:26:21.759Z,18.84
2022-08-21T10:27:34.900Z,18.83
2022-08-21T10:28:48.062Z,18.81
2022-08-21T10:30:07.042Z,18.81
2022-08-21T10:31:41.700Z,18.80
2022-08-21T10:33:07.090Z,18.78
2022-08-21T10:34:41.810Z,18.77
2022-08-21T10:36:18.371Z,18.75
2022-08-21T10:37:47.761Z,18.74
2022-08-21T10:39:35.913Z,18.75
2022-08-21T10:41:24.413Z,18.73
2022-08-21T10:42:53.216Z,18.71
2022-08-21T10:44:24.573Z,18.69
2022-08-21T10:45:42.947Z,18.68
2022-08-21T10:46:55.774Z,18.69
2022-08-21T10:48:09.886Z,18.68
2022-08-21T10:49:48.550Z,18.66
2022-08-21T10:51:01.373Z,18.63
2022-08-21T10:52:12.342Z,18.63
2022-08-21T10:53:29.460Z,18.63
2022-08-21T10:55:21.559Z,18.62
2022-08-21T10:56:34.823Z,18.61
2022-08-21T10:57:47.390Z,18.60
2022-08-21T10:59:22.850Z,18.59
2022-08-21T11:00:53.771Z,18.58
2022-08-21T11:02:24.025Z,18.56
2022-08-21T11:03:42.401Z,18.54
2022-08-21T11:05:17.361Z,18.52
2022-08-21T11:06:29.713Z,18.51
2022-08-21T11:07:50.482Z,18.51
2022-08-21T11:09:06.180Z,18.50
2022-08-21T11:10:24.494Z,18.51
2022-08-21T11:11:52.503Z,18.52
2022-08-21T11:13:21.214Z,18.51
2022-08-21T11:15:07.057Z,18.52
2022-08-21T11:16:55.243Z,18.51
2022-08-21T11:18:06.203Z,18.50
2022-08-21T11:19:32.049Z,18.50
2022-08-21T11:20:50.813Z,18.50
2022-08-21T11:22:17.492Z,18.51
2022-08-21T11:23:32.607Z,18.48
2022-08-21T11:25:00.105Z,18.45
2022-08-21T11:26:18.494Z,18.42
2022-08-21T11:27:29.443Z,18.38
2022-08-21T11:29:26.111Z,18.36
2022-08-21T11:30:57.528Z,18.31
2022-08-21T11:32:18.483Z,18.27
2022-08-21T11:33:51.573Z,18.24
2022-08-21T11:35:28.379Z,18.22
2022-08-21T11:36:42.057Z,18.20
2022-08-21T11:37:58.060Z,18.18
2022-08-21T11:39:10.583Z,18.16
2022-08-21T11:40:52.693Z,18.15
2022-08-21T11:42:42.181Z,18.15
2022-08-21T11:44:01.790Z,18.17
2022-08-21T11:45:22.178Z,18.18
2022-08-21T11:46:58.261Z,18.19
2022-08-21T11:48:42.794Z,18.20
2022-08-21T11:49:56.840Z,18.21
2022-08-21T11:51:06.836Z,18.23
2022-08-21T11:52:39.310Z,18.23
2022-08-21T11:53:54.493Z,18.23
2022-08-21T11:55:07.471Z,18.23
2022-08-21T11:56:19.791Z,18.23
2022-08-21T11:57:39.462Z,18.24
2022-08-21T11:59:03.312Z,18.24
2022-08-21T12:00:32.661Z,18.24
2022-08-21T12:01:46.869Z,18.23
2022-08-21T12:02:57.665Z,18.23
2022-08-21T12:04:26.897Z,18.22
2022-08-21T12:05:45.423Z,18.21
2022-08-21T12:06:53.213Z,18.21
2022-08-21T12:08:16.790Z,18.22
2022-08-21T12:09:28.058Z,18.22
2022-08-21T12:10:38.252Z,18.22
2022-08-21T12:12:16.145Z,18.24
2022-08-21T12:13:40.678Z,18.21
2022-08-21T12:14:52.314Z,18.21
2022-08-21T12:16:14.512Z,18.20
2022-08-21T12:17:27.297Z,18.20
2022-08-21T12:18:35.342Z,18.20
2022-08-21T12:19:43.373Z,18.18
2022-08-21T12:21:23.346Z,18.16
2022-08-21T12:22:43.658Z,18.16
2022-08-21T12:24:13.877Z,18.12
2022-08-21T12:25:23.951Z,18.09
2022-08-21T12:26:39.526Z,18.07
2022-08-21T12:27:52.673Z,18.05
2022-08-21T12:29:16.635Z,18.04
2022-08-21T12:30:38.806Z,18.04
2022-08-21T12:32:08.113Z,18.03
2022-08-21T12:33:23.981Z,18.03
2022-08-21T12:35:15.557Z,18.02
2022-08-21T12:36:58.129Z,18.00
2022-08-21T12:38:20.200Z,18.00
2022-08-21T12:39:29.725Z,18.00
2022-08-21T12:40:47.503Z,17.98
2022-08-21T12:42:27.999Z,17.96
2022-08-21T12:43:40.049Z,17.94
2022-08-21T12:44:51.986Z,17.93
2022-08-21T12:46:02.719Z,17.93
2022-08-21T12:47:21.127Z,17.92
2022-08-21T12:48:46.608Z,17.93
2022-08-21T12:50:17.809Z,17.93
2022-08-21T12:51:51.178Z,17.92
2022-08-21T12:53:27.316Z,17.92
2022-08-21T12:54:40.484Z,17.91
2022-08-21T12:55:47.954Z,17.91
2022-08-21T12:57:04.163Z,17.89
2022-08-21T12:58:26.077Z,17.92
2022-08-21T12:59:41.927Z,17.90
2022-08-21T13:00:59.388Z,17.90
2022-08-21T13:02:07.317Z,17.92
2022-08-21T13:03:15.948Z,17.90
2022-08-21T13:04:26.539Z,17.91
2022-08-21T13:05:39.322Z,17.89
2022-08-21T13:06:50.071Z,17.89
2022-08-21T13:07:58.733Z,17.88
2022-08-21T13:09:09.261Z,17.87
2022-08-21T13:10:27.428Z,17.87
2022-08-21T13:11:35.094Z,17.87
2022-08-21T13:12:43.943Z,17.88
2022-08-21T13:13:53.412Z,17.88
2022-08-21T13:15:04.308Z,17.86
2022-08-21T13:16:17.691Z,17.87
2022-08-21T13:17:27.875Z,17.87
2022-08-21T13:18:37.583Z,17.87
2022-08-21T13:19:45.458Z,17.87
2022-08-21T13:20:52.949Z,17.88
2022-08-21T13:22:00.837Z,17.88
2022-08-21T13:23:31.832Z,17.87
2022-08-21T13:24:43.073Z,17.89
2022-08-21T13:25:52.178Z,17.89
2022-08-21T13:27:00.148Z,17.92
2022-08-21T13:28:14.423Z,17.91
2022-08-21T13:29:25.542Z,17.92
2022-08-21T13:30:33.796Z,17.93
2022-08-21T13:31:42.142Z,17.93
2022-08-21T13:32:52.978Z,17.95
2022-08-21T13:34:03.229Z,17.95
2022-08-21T13:35:16.577Z,17.96
2022-08-21T13:36:32.787Z,18.02
2022-08-21T13:37:43.362Z,18.05
2022-08-21T13:38:51.706Z,18.10
2022-08-21T13:39:59.647Z,18.15
2022-08-21T13:41:23.386Z,18.20
2022-08-21T13:42:32.065Z,18.22
2022-08-21T13:43:41.182Z,18.23
2022-08-21T13:44:50.398Z,18.28
2022-08-21T13:45:58.356Z,18.34
2022-08-21T13:47:07.989Z,18.43
2022-08-21T13:48:16.818Z,18.51
2022-08-21T13:49:30.260Z,18.59
2022-08-21T13:50:38.591Z,18.68
2022-08-21T13:51:46.720Z,18.76
2022-08-21T13:53:00.766Z,18.82
2022-08-21T13:54:29.640Z,18.89
2022-08-21T13:55:44.200Z,18.95
2022-08-21T13:56:52.014Z,19.01
2022-08-21T13:58:04.301Z,19.08
2022-08-21T13:59:12.812Z,19.16
2022-08-21T14:00:30.470Z,19.21
2022-08-21T14:02:01.587Z,19.21
2022-08-21T14:03:11.198Z,19.14
2022-08-21T14:04:38.558Z,19.09
2022-08-21T14:05:48.441Z,19.08
2022-08-21T14:06:56.822Z,19.07
2022-08-21T14:08:32.025Z,19.12
2022-08-21T14:09:45.271Z,19.25
2022-08-21T14:10:57.271Z,19.42
2022-08-21T14:12:22.376Z,19.60
2022-08-21T14:13:43.274Z,19.77
2022-08-21T14:14:51.484Z,19.89
2022-08-21T14:16:02.532Z,20.02
2022-08-21T14:17:24.923Z,20.18
2022-08-21T14:18:37.313Z,20.37
2022-08-21T14:19:47.176Z,20.53
2022-08-21T14:20:55.166Z,20.70
2022-08-21T14:22:04.180Z,20.82
2022-08-21T14:23:13.121Z,20.91
2022-08-21T14:24:26.356Z,20.97
2022-08-21T14:25:43.968Z,21.01
2022-08-21T14:26:53.948Z,21.08
2022-08-21T14:28:31.864Z,21.14
2022-08-21T14:29:45.596Z,21.30
2022-08-21T14:30:53.957Z,21.34
2022-08-21T14:32:02.274Z,21.43
2022-08-21T14:33:15.348Z,21.55
2022-08-21T14:34:24.171Z,21.70
2022-08-21T14:35:31.767Z,21.82
2022-08-21T14:36:40.094Z,21.93
2022-08-21T14:37:48.556Z,22.10
2022-08-21T14:38:58.714Z,22.21
2022-08-21T14:40:07.556Z,22.28
2022-08-21T14:41:29.782Z,22.33
2022-08-21T14:42:37.204Z,22.37
2022-08-21T14:44:04.030Z,22.47
2022-08-21T14:45:24.794Z,22.51
2022-08-21T14:46:51.606Z,22.57
2022-08-21T14:48:05.261Z,22.74
2022-08-21T14:49:14.442Z,22.84
2022-08-21T14:50:23.119Z,22.88
2022-08-21T14:51:34.347Z,22.88
2022-08-21T14:52:46.048Z,22.90
2022-08-21T14:53:54.672Z,22.85
2022-08-21T14:55:02.893Z,22.84
2022-08-21T14:56:15.475Z,22.99
2022-08-21T14:57:23.983Z,23.10
2022-08-21T14:58:32.407Z,23.25
2022-08-21T14:59:45.788Z,23.39
2022-08-21T15:00:55.486Z,23.45
2022-08-21T15:02:05.590Z,23.52
2022-08-21T15:03:13.500Z,23.64
2022-08-21T15:04:22.236Z,23.75
2022-08-21T15:05:33.831Z,23.81
2022-08-21T15:06:42.966Z,23.81
2022-08-21T15:07:51.111Z,23.90
2022-08-21T15:08:58.714Z,24.11
2022-08-21T15:10:06.846Z,24.23
2022-08-21T15:11:41.493Z,24.34
2022-08-21T15:12:51.706Z,24.32
2022-08-21T15:14:00.606Z,24.48
2022-08-21T15:15:12.469Z,24.71
2022-08-21T15:16:26.082Z,24.82
2022-08-21T15:17:33.712Z,24.83
2022-08-21T15:18:41.390Z,24.79
2022-08-21T15:19:49.568Z,24.73
2022-08-21T15:21:00.384Z,24.71
2022-08-21T15:22:15.399Z,24.78
2022-08-21T15:23:24.982Z,25.06
2022-08-21T15:24:33.113Z,25.30
2022-08-21T15:25:44.859Z,25.34
2022-08-21T15:26:52.958Z,25.42
2022-08-21T15:28:01.323Z,25.52
2022-08-21T15:29:09.402Z,25.53
2022-08-21T15:30:19.680Z,25.48
2022-08-21T15:31:28.424Z,25.46
2022-08-21T15:32:36.632Z,25.48
2022-08-21T15:33:45.451Z,25.56
2022-08-21T15:34:56.482Z,25.62
2022-08-21T15:36:04.779Z,25.65
2022-08-21T15:37:15.970Z,25.70